createdAt,value
2018-12-03T00:00:26.401Z,12.50
2018-12-03T00:03:04.539Z,12.70
2018-12-03T00:05:39.525Z,12.70
2018-12-03T00:08:14.540Z,12.60
2018-12-03T00:10:50.413Z,12.60
2018-12-03T00:13:25.426Z,12.70
2018-12-03T00:16:00.616Z,12.60
2018-12-03T00:18:35.899Z,12.60
2018-12-03T00:21:10.947Z,12.50
2018-12-03T00:23:45.990Z,12.40
2018-12-03T00:26:20.814Z,12.40
2018-12-03T00:28:56.166Z,12.30
2018-12-03T00:31:31.180Z,12.30
2018-12-03T00:34:06.203Z,12.30
2018-12-03T00:36:41.163Z,12.30
2018-12-03T00:39:16.164Z,12.30
2018-12-03T00:41:51.201Z,12.30
2018-12-03T00:44:26.238Z,12.30
2018-12-03T00:47:01.081Z,12.40
2018-12-03T00:49:36.201Z,12.30
2018-12-03T00:52:11.256Z,12.30
2018-12-03T00:54:46.360Z,12.30
2018-12-03T00:57:21.398Z,12.20
2018-12-03T00:59:56.523Z,12.30
2018-12-03T01:02:31.320Z,12.30
2018-12-03T01:05:07.727Z,12.20
2018-12-03T01:07:43.834Z,12.20
2018-12-03T01:10:18.548Z,12.20
2018-12-03T01:12:53.770Z,12.30
2018-12-03T01:15:28.755Z,12.20
2018-12-03T01:18:03.823Z,12.40
2018-12-03T01:20:38.929Z,12.20
2018-12-03T01:23:14.294Z,12.30
2018-12-03T01:25:50.004Z,12.30
2018-12-03T01:28:24.884Z,12.40
2018-12-03T01:31:00.105Z,12.40
2018-12-03T01:33:34.901Z,12.40
2018-12-03T01:36:09.964Z,12.40
2018-12-03T01:38:44.987Z,12.40
2018-12-03T01:41:19.898Z,12.50
2018-12-03T01:43:54.840Z,12.50
2018-12-03T01:46:30.000Z,12.60
2018-12-03T01:49:06.338Z,12.50
2018-12-03T01:51:41.296Z,12.60
2018-12-03T01:54:17.200Z,12.50
2018-12-03T01:56:52.360Z,12.60
2018-12-03T01:59:27.605Z,12.60
2018-12-03T02:02:02.724Z,12.70
2018-12-03T02:04:38.365Z,12.70
2018-12-03T02:07:13.404Z,12.70
2018-12-03T02:09:48.637Z,12.70
2018-12-03T02:12:23.711Z,12.70
2018-12-03T02:14:58.870Z,12.60
2018-12-03T02:17:33.981Z,12.70
2018-12-03T02:20:12.457Z,12.70
2018-12-03T02:22:48.461Z,12.70
2018-12-03T02:25:23.345Z,12.70
2018-12-03T02:27:58.241Z,12.90
2018-12-03T02:30:33.995Z,12.80
2018-12-03T02:33:09.873Z,12.80
2018-12-03T02:35:45.107Z,12.90
2018-12-03T02:38:20.134Z,12.80
2018-12-03T02:40:55.279Z,12.80
2018-12-03T02:43:30.633Z,12.80
2018-12-03T02:46:06.024Z,12.80
2018-12-03T02:48:41.204Z,12.80
2018-12-03T02:51:16.385Z,12.80
2018-12-03T02:53:51.255Z,12.90
2018-12-03T02:56:26.317Z,12.80
2018-12-03T02:59:01.602Z,12.80
2018-12-03T03:01:38.674Z,12.90
2018-12-03T03:04:13.955Z,12.90
2018-12-03T03:06:49.212Z,12.80
2018-12-03T03:09:24.115Z,12.80
2018-12-03T03:11:59.520Z,12.80
2018-12-03T03:14:34.617Z,12.80
2018-12-03T03:17:09.888Z,12.70
2018-12-03T03:19:45.056Z,12.70
2018-12-03T03:22:20.113Z,12.80
2018-12-03T03:24:55.307Z,12.80
2018-12-03T03:27:30.356Z,12.70
2018-12-03T03:30:09.469Z,12.90
2018-12-03T03:32:45.595Z,12.90
2018-12-03T03:35:20.765Z,13.00
2018-12-03T03:37:55.712Z,12.90
2018-12-03T03:40:30.681Z,13.00
2018-12-03T03:43:06.779Z,13.10
2018-12-03T03:45:42.403Z,13.10
2018-12-03T03:48:17.412Z,13.10
2018-12-03T03:50:52.450Z,13.00
2018-12-03T03:53:27.784Z,12.90
2018-12-03T03:56:03.189Z,12.90
2018-12-03T03:58:38.752Z,12.90
2018-12-03T04:01:13.834Z,12.90
2018-12-03T04:03:48.914Z,12.90
2018-12-03T04:06:23.953Z,12.90
2018-12-03T04:08:59.174Z,12.90
2018-12-03T04:11:34.147Z,12.90
2018-12-03T04:14:08.976Z,12.80
2018-12-03T04:16:44.096Z,12.80
2018-12-03T04:19:19.281Z,12.90
2018-12-03T04:21:54.714Z,12.90
2018-12-03T04:24:29.928Z,12.90
2018-12-03T04:27:04.777Z,13.10
2018-12-03T04:29:40.064Z,13.10
2018-12-03T04:32:15.114Z,13.10
2018-12-03T04:34:50.255Z,13.10
2018-12-03T04:37:25.068Z,13.10
2018-12-03T04:40:00.268Z,13.10
2018-12-03T04:42:35.271Z,13.10
2018-12-03T04:45:13.888Z,13.10
2018-12-03T04:47:49.997Z,13.10
2018-12-03T04:50:24.933Z,13.10
2018-12-03T04:53:00.243Z,13.20
2018-12-03T04:55:35.357Z,13.20
2018-12-03T04:58:10.534Z,13.10
2018-12-03T05:00:45.366Z,13.30
2018-12-03T05:03:20.714Z,13.30
2018-12-03T05:05:55.802Z,13.30
2018-12-03T05:08:30.768Z,13.10
2018-12-03T05:11:06.868Z,13.10
2018-12-03T05:13:42.005Z,13.10
2018-12-03T05:16:17.117Z,13.10
2018-12-03T05:18:52.167Z,13.10
2018-12-03T05:21:27.281Z,13.20
2018-12-03T05:24:04.412Z,13.10
2018-12-03T05:26:38.145Z,13.00
2018-12-03T05:29:13.268Z,12.90
2018-12-03T05:31:48.375Z,12.80
2018-12-03T05:34:24.189Z,12.80
2018-12-03T05:36:58.920Z,12.70
2018-12-03T05:39:40.557Z,12.80
2018-12-03T05:42:15.537Z,12.70
2018-12-03T05:44:51.482Z,12.80
2018-12-03T05:47:27.284Z,12.70
2018-12-03T05:50:02.546Z,12.80
2018-12-03T05:53:23.945Z,12.80
2018-12-03T05:56:25.341Z,12.90
2018-12-03T05:59:26.104Z,12.90
2018-12-03T06:02:27.346Z,13.00
2018-12-03T06:05:28.693Z,13.00
2018-12-03T06:08:29.977Z,12.90
2018-12-03T06:11:30.724Z,12.90
2018-12-03T06:14:32.280Z,13.00
2018-12-03T06:17:33.855Z,13.00
2018-12-03T06:20:35.026Z,13.00
2018-12-03T06:23:35.541Z,13.00
2018-12-03T06:26:36.418Z,13.00
2018-12-03T06:29:37.819Z,13.00
2018-12-03T06:32:38.670Z,13.10
2018-12-03T06:35:39.474Z,13.00
2018-12-03T06:38:40.059Z,13.00
2018-12-03T06:41:41.364Z,13.10
2018-12-03T06:44:41.965Z,13.10
2018-12-03T06:47:42.911Z,13.00
2018-12-03T06:50:43.805Z,13.10
2018-12-03T06:53:45.178Z,13.20
2018-12-03T06:56:46.518Z,13.30
2018-12-03T06:59:47.974Z,13.20
2018-12-03T07:02:49.434Z,13.30
2018-12-03T07:05:50.366Z,13.30
2018-12-03T07:08:51.511Z,13.20
2018-12-03T07:11:52.455Z,13.10
2018-12-03T07:14:52.979Z,13.10
2018-12-03T07:17:54.424Z,12.90
2018-12-03T07:20:55.642Z,12.90
2018-12-03T07:23:56.741Z,12.80
2018-12-03T07:26:58.085Z,12.90
2018-12-03T07:29:59.357Z,12.80
2018-12-03T07:33:00.706Z,12.80
2018-12-03T07:36:01.653Z,12.90
2018-12-03T07:39:02.474Z,12.90
2018-12-03T07:42:02.154Z,13.00
2018-12-03T07:45:03.618Z,13.00
2018-12-03T07:48:09.441Z,13.10
2018-12-03T07:51:10.875Z,13.40
2018-12-03T07:54:13.180Z,13.40
2018-12-03T07:57:14.930Z,13.60
2018-12-03T08:00:15.726Z,14.70
2018-12-03T08:03:16.494Z,15.20
2018-12-03T08:06:17.246Z,14.80
2018-12-03T08:09:18.265Z,14.30
2018-12-03T08:12:18.987Z,13.80
2018-12-03T08:15:20.635Z,14.60
2018-12-03T08:18:21.731Z,15.20
2018-12-03T08:21:23.015Z,15.90
2018-12-03T08:24:24.207Z,16.70
2018-12-03T08:27:25.634Z,17.50
2018-12-03T08:30:26.999Z,16.50
2018-12-03T08:33:16.058Z,15.70
2018-12-03T08:36:24.313Z,15.40
2018-12-03T08:39:25.187Z,15.60
2018-12-03T08:42:26.457Z,15.90
2018-12-03T08:45:27.781Z,16.90
2018-12-03T08:48:16.475Z,18.50
2018-12-03T08:51:24.714Z,19.50
2018-12-03T08:54:25.807Z,18.20
2018-12-03T08:57:27.773Z,16.90
2018-12-03T09:00:29.656Z,15.70
2018-12-03T09:03:18.982Z,16.80
2018-12-03T09:06:27.932Z,17.70
2018-12-03T09:09:29.099Z,18.10
2018-12-03T09:12:18.311Z,17.90
2018-12-03T09:15:26.822Z,16.90
2018-12-03T09:18:29.169Z,16.90
2018-12-03T09:21:18.595Z,17.10
2018-12-03T09:24:27.112Z,17.30
2018-12-03T09:27:28.319Z,17.30
2018-12-03T09:30:29.357Z,16.20
2018-12-03T09:33:18.314Z,16.80
2018-12-03T09:36:26.696Z,16.80
2018-12-03T09:39:27.769Z,16.40
2018-12-03T09:42:29.260Z,16.40
2018-12-03T09:45:18.186Z,16.30
2018-12-03T09:48:26.561Z,16.30
2018-12-03T09:51:28.487Z,16.70
2018-12-03T09:54:29.797Z,18.30
2018-12-03T09:57:30.718Z,18.00
2018-12-03T10:00:19.651Z,17.10
2018-12-03T10:03:27.883Z,16.70
2018-12-03T10:06:28.966Z,16.50
2018-12-03T10:09:29.942Z,16.40
2018-12-03T10:12:31.082Z,16.60
2018-12-03T10:18:36.385Z,16.50
2018-12-03T10:21:44.683Z,16.00
2018-12-03T10:24:46.042Z,15.80
2018-12-03T10:27:46.615Z,15.60
2018-12-03T10:30:47.384Z,15.50
2018-12-03T10:33:48.519Z,15.50
2018-12-03T10:36:49.999Z,15.60
2018-12-03T10:39:50.520Z,15.70
2018-12-03T10:42:51.767Z,16.00
2018-12-03T10:45:53.134Z,16.10
2018-12-03T10:48:54.432Z,16.10
2018-12-03T10:51:55.226Z,16.00
2018-12-03T10:54:56.762Z,15.90
2018-12-03T10:57:58.479Z,16.00
2018-12-03T11:01:18.636Z,16.10
2018-12-03T11:04:42.503Z,16.40
2018-12-03T11:07:46.973Z,16.70
2018-12-03T11:10:48.388Z,16.30
2018-12-03T11:13:49.737Z,16.50
2018-12-03T11:16:51.212Z,16.40
2018-12-03T11:19:51.619Z,16.30
2018-12-03T11:22:52.866Z,16.20
2018-12-03T11:25:54.289Z,16.10
2018-12-03T11:28:55.630Z,16.10
2018-12-03T11:31:57.166Z,16.00
2018-12-03T11:34:57.898Z,16.00
2018-12-03T11:37:59.581Z,15.70
2018-12-03T11:41:00.826Z,15.80
2018-12-03T11:44:01.796Z,15.60
2018-12-03T11:47:02.651Z,15.70
2018-12-03T11:50:03.674Z,15.70
2018-12-03T11:53:04.699Z,15.40
2018-12-03T11:56:05.501Z,15.50
2018-12-03T11:59:06.346Z,15.60
2018-12-03T12:02:07.939Z,15.70
2018-12-03T12:05:08.708Z,15.70
2018-12-03T12:08:10.071Z,15.50
2018-12-03T12:11:11.598Z,15.40
2018-12-03T12:14:12.410Z,15.20
2018-12-03T12:17:13.913Z,15.40
2018-12-03T12:20:15.135Z,15.50
2018-12-03T12:23:16.773Z,15.80
2018-12-03T12:26:17.373Z,15.80
2018-12-03T12:29:18.073Z,15.50
2018-12-03T12:32:18.053Z,15.80
2018-12-03T12:35:19.447Z,15.80
2018-12-03T12:38:24.508Z,15.80
2018-12-03T12:41:25.638Z,15.70
2018-12-03T12:44:26.503Z,15.70
2018-12-03T12:47:27.409Z,15.60
2018-12-03T12:50:28.119Z,15.70
2018-12-03T12:53:28.817Z,15.60
2018-12-03T12:56:29.998Z,15.60
2018-12-03T12:59:30.581Z,15.50
2018-12-03T13:02:32.277Z,15.50
2018-12-03T13:05:33.102Z,15.50
2018-12-03T13:08:34.026Z,15.40
2018-12-03T13:11:34.946Z,15.40
2018-12-03T13:14:35.713Z,15.40
2018-12-03T13:17:36.680Z,15.30
2018-12-03T13:20:37.535Z,15.20
2018-12-03T13:23:38.459Z,15.60
2018-12-03T13:26:39.873Z,15.50
2018-12-03T13:29:41.106Z,15.60
2018-12-03T13:32:42.289Z,15.30
2018-12-03T13:35:43.454Z,15.30
2018-12-03T13:38:32.215Z,15.20
2018-12-03T13:41:40.434Z,15.70
2018-12-03T13:44:43.997Z,15.70
2018-12-03T13:47:32.606Z,15.80
2018-12-03T13:50:40.670Z,15.70
2018-12-03T13:53:41.559Z,15.70
2018-12-03T13:56:43.199Z,15.70
2018-12-03T13:59:44.429Z,15.50
2018-12-03T14:02:33.136Z,15.50
2018-12-03T14:05:41.485Z,15.60
2018-12-03T14:08:42.946Z,15.60
2018-12-03T14:11:43.776Z,14.70
2018-12-03T14:14:45.236Z,14.40
2018-12-03T14:17:33.982Z,14.10
2018-12-03T14:20:42.044Z,14.10
2018-12-03T14:23:42.946Z,14.00
2018-12-03T14:26:43.832Z,14.00
2018-12-03T14:29:45.097Z,14.00
2018-12-03T14:32:46.436Z,14.00
2018-12-03T14:35:35.209Z,13.90
2018-12-03T14:38:43.225Z,13.80
2018-12-03T14:41:44.130Z,13.70
2018-12-03T14:44:45.114Z,13.70
2018-12-03T14:47:46.218Z,13.60
2018-12-03T14:50:46.805Z,13.60
2018-12-03T14:53:48.024Z,13.50
2018-12-03T14:56:36.680Z,13.40
2018-12-03T14:59:45.081Z,13.30
2018-12-03T15:02:46.165Z,13.40
2018-12-03T15:05:47.090Z,13.30
2018-12-03T15:08:48.240Z,13.20
2018-12-03T15:11:36.933Z,13.30
2018-12-03T15:14:44.917Z,13.30
2018-12-03T15:17:45.796Z,13.30
2018-12-03T15:20:47.157Z,13.40
2018-12-03T15:23:48.425Z,13.30
2018-12-03T15:26:49.411Z,13.30
2018-12-03T15:29:38.053Z,13.30
2018-12-03T15:32:46.034Z,13.30
2018-12-03T15:35:47.115Z,13.20
2018-12-03T15:38:48.291Z,13.30
2018-12-03T15:41:49.407Z,13.10
2018-12-03T15:44:49.809Z,13.00
2018-12-03T15:47:51.102Z,12.90
2018-12-03T15:50:39.754Z,12.70
2018-12-03T15:53:47.690Z,12.60
2018-12-03T15:56:48.915Z,12.50
2018-12-03T15:59:49.888Z,12.50
2018-12-03T16:02:51.135Z,12.40
2018-12-03T16:05:52.255Z,12.40
2018-12-03T16:08:40.876Z,12.40
2018-12-03T16:11:48.942Z,12.40
2018-12-03T16:14:49.469Z,12.40
2018-12-03T16:17:50.720Z,12.40
2018-12-03T16:20:52.124Z,12.40
2018-12-03T16:23:53.587Z,12.50
2018-12-03T16:26:42.369Z,12.50
2018-12-03T16:29:50.379Z,12.50
2018-12-03T16:32:50.948Z,12.50
2018-12-03T16:35:52.178Z,12.50
2018-12-03T16:38:53.175Z,12.50
2018-12-03T16:41:53.800Z,12.50
2018-12-03T16:44:54.893Z,12.50
2018-12-03T16:48:03.210Z,12.50
2018-12-03T16:51:11.173Z,12.50
2018-12-03T16:54:11.963Z,12.50
2018-12-03T16:57:12.961Z,12.60
2018-12-03T17:00:14.160Z,12.50
2018-12-03T17:03:15.155Z,12.60
2018-12-03T17:06:16.455Z,12.60
2018-12-03T17:09:17.282Z,12.60
2018-12-03T17:12:18.742Z,12.70
2018-12-03T17:15:19.702Z,12.80
2018-12-03T17:18:20.213Z,12.80
2018-12-03T17:21:21.447Z,12.70
2018-12-03T17:24:22.680Z,12.70
2018-12-03T17:27:23.118Z,12.70
2018-12-03T17:30:23.573Z,12.80
2018-12-03T17:33:24.744Z,12.80
2018-12-03T17:36:25.929Z,12.70
2018-12-03T17:39:27.157Z,12.80
2018-12-03T17:42:28.428Z,12.80
2018-12-03T17:45:29.455Z,12.80
2018-12-03T17:48:30.243Z,12.80
2018-12-03T17:51:31.222Z,12.90
2018-12-03T17:54:32.571Z,12.90
2018-12-03T17:57:33.522Z,12.90
2018-12-03T18:00:34.491Z,12.80
2018-12-03T18:03:35.063Z,12.70
2018-12-03T18:06:36.262Z,12.80
2018-12-03T18:09:36.619Z,12.80
2018-12-03T18:12:37.949Z,12.80
2018-12-03T18:15:39.299Z,12.60
2018-12-03T18:18:40.525Z,12.50
2018-12-03T18:21:41.481Z,12.30
2018-12-03T18:24:47.036Z,12.10
2018-12-03T18:27:47.828Z,11.70
2018-12-03T18:30:48.950Z,11.60
2018-12-03T18:33:50.204Z,11.50
2018-12-03T18:36:51.516Z,11.30
2018-12-03T18:39:52.630Z,11.10
2018-12-03T18:42:53.843Z,11.10
2018-12-03T18:45:54.879Z,11.00
2018-12-03T18:48:55.807Z,10.90
2018-12-03T18:51:57.045Z,10.80
2018-12-03T18:54:58.271Z,10.80
2018-12-03T18:57:59.209Z,10.70
2018-12-03T19:01:00.451Z,10.70
2018-12-03T19:04:02.324Z,10.60
2018-12-03T19:07:03.338Z,10.60
2018-12-03T19:10:04.443Z,10.50
2018-12-03T19:13:05.764Z,10.50
2018-12-03T19:15:54.505Z,10.40
2018-12-03T19:18:54.979Z,10.40
2018-12-03T19:21:55.738Z,10.30
2018-12-03T19:24:56.938Z,10.30
2018-12-03T19:27:57.490Z,10.30
2018-12-03T19:30:58.749Z,10.20
2018-12-03T19:33:59.889Z,10.20
2018-12-03T19:37:00.566Z,10.20
2018-12-03T19:40:01.545Z,10.20
2018-12-03T19:43:02.709Z,10.20
2018-12-03T19:46:03.278Z,10.20
2018-12-03T19:49:03.798Z,10.20
2018-12-03T19:52:05.062Z,10.20
2018-12-03T19:55:06.371Z,10.20
2018-12-03T19:58:07.657Z,10.20
2018-12-03T20:01:08.738Z,10.20
2018-12-03T20:03:57.398Z,10.20
2018-12-03T20:07:05.444Z,10.20
2018-12-03T20:10:06.523Z,10.20
2018-12-03T20:13:07.683Z,10.20
2018-12-03T20:16:08.690Z,10.20
2018-12-03T20:19:09.911Z,10.10
2018-12-03T20:21:58.859Z,10.10
2018-12-03T20:25:06.947Z,10.10
2018-12-03T20:28:08.365Z,10.10
2018-12-03T20:31:09.755Z,10.10
2018-12-03T20:34:10.965Z,10.10
2018-12-03T20:37:21.917Z,10.10
2018-12-03T20:40:30.030Z,10.10
2018-12-03T20:43:30.605Z,10.00
2018-12-03T20:46:31.604Z,10.00
2018-12-03T20:49:32.721Z,10.00
2018-12-03T20:52:33.530Z,10.00
2018-12-03T20:55:34.542Z,10.00
2018-12-03T20:58:34.951Z,10.00
2018-12-03T21:01:36.273Z,10.00
2018-12-03T21:04:37.340Z,10.00
2018-12-03T21:07:38.011Z,10.10
2018-12-03T21:10:39.128Z,10.10
2018-12-03T21:13:40.586Z,10.10
2018-12-03T21:16:41.669Z,10.10
2018-12-03T21:19:43.023Z,10.00
2018-12-03T21:22:44.197Z,10.10
2018-12-03T21:25:45.162Z,10.10
2018-12-03T21:28:46.339Z,10.10
2018-12-03T21:31:47.419Z,10.10
2018-12-03T21:34:48.678Z,10.00
2018-12-03T21:37:49.920Z,10.00
2018-12-03T21:40:51.089Z,10.00
2018-12-03T21:43:52.347Z,10.00
2018-12-03T21:46:53.545Z,10.00
2018-12-03T21:49:54.847Z,10.10
2018-12-03T21:52:59.043Z,10.10
2018-12-03T21:56:00.277Z,10.20
2018-12-03T21:59:01.307Z,10.20
2018-12-03T22:02:02.737Z,10.10
2018-12-03T22:05:03.819Z,10.10
2018-12-03T22:08:05.063Z,10.10
2018-12-03T22:11:06.141Z,10.10
2018-12-03T22:14:06.662Z,10.20
2018-12-03T22:17:07.606Z,10.20
2018-12-03T22:20:08.640Z,10.20
2018-12-03T22:23:09.627Z,10.20
2018-12-03T22:26:10.026Z,10.10
2018-12-03T22:29:10.977Z,10.10
2018-12-03T22:32:11.638Z,10.10
2018-12-03T22:35:12.678Z,10.10
2018-12-03T22:38:13.846Z,10.10
2018-12-03T22:41:15.114Z,10.00
2018-12-03T22:44:15.739Z,10.10
2018-12-03T22:47:16.240Z,10.10
2018-12-03T22:50:17.613Z,10.00
2018-12-03T22:53:18.107Z,10.00
2018-12-03T22:56:18.707Z,10.10
2018-12-03T22:59:19.876Z,10.10
2018-12-03T23:02:20.690Z,10.00
2018-12-03T23:05:21.082Z,10.00
2018-12-03T23:08:22.093Z,10.10
2018-12-03T23:11:10.826Z,10.00
2018-12-03T23:14:18.813Z,10.10
2018-12-03T23:17:19.383Z,10.10
2018-12-03T23:20:20.834Z,10.10
2018-12-03T23:23:21.331Z,10.10
2018-12-03T23:26:21.937Z,10.10
2018-12-03T23:29:22.794Z,10.10
2018-12-03T23:32:24.005Z,10.00
2018-12-03T23:35:12.730Z,10.00
2018-12-03T23:38:20.661Z,10.00
2018-12-03T23:41:21.143Z,10.00
2018-12-03T23:44:22.283Z,9.90
2018-12-03T23:47:23.584Z,9.90
2018-12-03T23:50:24.734Z,9.90
2018-12-03T23:53:26.018Z,9.90
2018-12-03T23:56:14.753Z,9.90
2018-12-03T23:59:22.715Z,10.00
